Terminal Aerodrome Forecast
Issued by NWS

Home | Current Version | Previous Version | Text Only | Print | Product List | Glossary On
Versions: 1 2 3 4 5 6 7 8 9 10 11 12 13 14
000
FTUS46 KSEW 251120
TAFBFI
TAF
KBFI 251120Z 2512/2612 VRB03KT P6SM BKN020
     FM252000 20006KT P6SM SCT030 BKN050
     FM260500 17007KT P6SM SCT020 BKN035=

USA.gov is the U.S. government's official web portal to all federal, state and local government web resources and services.